Time;durP1;ratioP1;P1;durP2;ratioP2;P2;SDS_P1;SDS_P2;PMS_P1;PMS_P2;Temp;Humidity;BMP_temperature;BMP_pressure;BME280_temperature;BME280_humidity;BME280_pressure;Samples;Min_cycle;Max_cycle;Signal;HPM_P1;HPM_P2
2022/10/22 00:02:23;;;;;;;1.53;1.13;;;;;;;15.08;nan;99300.53;4971174;28;20250;-78
2022/10/22 00:04:49;;;;;;;1.83;1.20;;;;;;;15.08;nan;99295.22;4977509;28;20204;-78
2022/10/22 00:07:19;;;;;;;1.75;1.30;;;;;;;15.08;nan;99274.91;4975610;28;20693;-76
2022/10/22 00:09:45;;;;;;;2.60;1.10;;;;;;;15.08;nan;99296.06;4975235;28;20218;-77
2022/10/22 00:12:11;;;;;;;2.60;1.00;;;;;;;15.09;nan;99308.31;4978177;28;20218;-77
2022/10/22 00:14:36;;;;;;;1.05;0.90;;;;;;;15.10;nan;99304.72;4973907;28;21216;-76
2022/10/22 00:17:02;;;;;;;1.20;1.00;;;;;;;15.09;nan;99299.53;4969323;28;20280;-79
2022/10/22 00:19:27;;;;;;;1.10;0.90;;;;;;;15.09;nan;99310.94;4970034;28;20200;-79
2022/10/22 00:21:53;;;;;;;5.33;1.57;;;;;;;15.09;nan;99305.66;4969595;28;20678;-79
2022/10/22 00:24:18;;;;;;;4.60;2.00;;;;;;;15.09;nan;99310.94;4972343;28;20190;-79
2022/10/22 00:26:44;;;;;;;1.43;1.17;;;;;;;15.08;nan;99327.81;4971995;28;20261;-79
2022/10/22 00:29:09;;;;;;;1.40;1.03;;;;;;;15.09;nan;99332.13;4971602;28;20275;-79
2022/10/22 00:31:35;;;;;;;1.60;1.17;;;;;;;15.09;nan;99318.06;4974093;28;20730;-76
2022/10/22 00:34:01;;;;;;;1.37;1.00;;;;;;;15.02;nan;99278.91;4972172;28;20193;-79
2022/10/22 00:36:26;;;;;;;1.90;1.40;;;;;;;14.99;nan;99295.06;4971181;28;20263;-79
2022/10/22 00:38:52;;;;;;;2.33;1.00;;;;;;;14.99;nan;99288.94;4973592;28;20357;-79
2022/10/22 00:41:17;;;;;;;2.10;0.93;;;;;;;15.00;nan;99293.25;4974432;28;20373;-78
2022/10/22 00:43:59;;;;;;;1.37;0.97;;;;;;;15.03;nan;99300.91;4975500;28;20238;-77
2022/10/22 00:46:25;;;;;;;1.40;1.20;;;;;;;15.04;nan;99290.22;4971799;28;20202;-78
2022/10/22 00:48:51;;;;;;;1.90;1.00;;;;;;;15.05;nan;99276.00;4971841;28;20233;-79
2022/10/22 00:51:19;;;;;;;1.75;1.20;;;;;;;15.04;nan;99294.63;4975107;28;20471;-78
2022/10/22 00:53:49;;;;;;;1.15;1.00;;;;;;;15.04;nan;99299.94;4975270;28;20248;-79
2022/10/22 00:56:16;;;;;;;2.60;1.17;;;;;;;15.02;nan;99305.38;4974645;28;20211;-78
2022/10/22 00:58:46;;;;;;;3.83;1.20;;;;;;;15.04;nan;99311.38;4973552;28;20321;-78
2022/10/22 01:01:20;;;;;;;3.65;1.20;;;;;;;15.03;nan;99325.56;4975037;28;20216;-80
2022/10/22 01:03:46;;;;;;;0.98;0.75;;;;;;;15.01;nan;99324.00;4980521;28;20193;-79
2022/10/22 01:06:27;;;;;;;1.13;1.00;;;;;;;14.99;nan;99318.88;4972244;28;20206;-79
2022/10/22 01:09:10;;;;;;;2.17;1.17;;;;;;;15.02;nan;99325.69;4972498;28;20212;-78
2022/10/22 01:11:51;;;;;;;3.72;0.90;;;;;;;15.03;nan;99340.59;4987557;28;21108;-76
2022/10/22 01:14:40;;;;;;;1.67;1.23;;;;;;;15.03;nan;99349.34;4972573;28;20212;-76
2022/10/22 01:17:25;;;;;;;3.25;1.10;;;;;;;15.02;nan;99347.69;4973164;28;20201;-78
2022/10/22 01:19:56;;;;;;;3.67;1.67;;;;;;;14.98;nan;99356.84;4972030;28;20208;-78
2022/10/22 01:22:40;;;;;;;1.20;1.10;;;;;;;14.96;nan;99363.22;4974381;28;20256;-78
2022/10/22 01:25:15;;;;;;;1.10;1.00;;;;;;;14.93;nan;99367.00;4973079;28;20217;-79
2022/10/22 01:27:58;;;;;;;1.95;1.10;;;;;;;14.91;nan;99345.13;4967336;28;20202;-78
2022/10/22 01:30:24;;;;;;;1.23;1.13;;;;;;;14.91;nan;99352.25;4973064;28;20215;-78
2022/10/22 01:33:02;;;;;;;1.42;1.13;;;;;;;14.91;nan;99360.19;4972136;28;20090;-79
2022/10/22 01:35:35;;;;;;;2.13;1.10;;;;;;;14.91;nan;99376.03;4969796;28;20199;-78
2022/10/22 01:38:05;;;;;;;2.03;1.10;;;;;;;14.92;nan;99390.94;4970043;28;20724;-77
2022/10/22 01:40:32;;;;;;;1.23;1.13;;;;;;;14.92;nan;99390.94;4972059;28;20547;-78
2022/10/22 01:43:06;;;;;;;3.25;2.00;;;;;;;14.94;nan;99399.56;4971785;28;20213;-76
2022/10/22 01:45:38;;;;;;;3.10;1.30;;;;;;;14.93;nan;99411.97;4969104;28;20225;-79
2022/10/22 01:48:03;;;;;;;2.00;1.80;;;;;;;14.95;nan;99412.66;4968567;28;20194;-79
2022/10/22 01:51:09;;;;;;;3.70;2.33;;;;;;;14.96;nan;99398.47;4968070;28;20651;-79
2022/10/22 01:53:49;;;;;;;3.53;1.63;;;;;;;14.98;nan;99385.09;4966271;28;20304;-77
2022/10/22 01:56:26;;;;;;;4.15;1.63;;;;;;;14.98;nan;99380.66;4967129;28;20788;-77
2022/10/22 01:59:19;;;;;;;2.00;1.80;;;;;;;14.97;nan;99364.94;4980836;28;20205;-78
2022/10/22 02:01:47;;;;;;;4.22;2.85;;;;;;;14.92;nan;99343.31;4965573;28;20268;-78
2022/10/22 02:04:28;;;;;;;2.45;2.22;;;;;;;14.92;nan;99353.91;4969919;28;20283;-78
2022/10/22 02:07:00;;;;;;;3.85;3.00;;;;;;;14.95;nan;99366.84;4970226;28;20188;-78
2022/10/22 02:09:28;;;;;;;7.38;3.00;;;;;;;14.98;nan;99383.28;4970732;28;20670;-78
2022/10/22 02:11:55;;;;;;;4.72;2.50;;;;;;;15.01;nan;99368.97;4972641;28;20212;-78
2022/10/22 02:14:23;;;;;;;4.57;2.83;;;;;;;15.02;nan;99360.09;4971672;28;20258;-77
2022/10/22 02:16:49;;;;;;;3.08;2.60;;;;;;;14.98;nan;99353.38;4972161;28;20194;-78
2022/10/22 02:19:26;;;;;;;4.80;2.45;;;;;;;14.95;nan;99351.81;4969923;28;20389;-76
2022/10/22 02:21:52;;;;;;;7.35;3.67;;;;;;;14.96;nan;99352.66;4970815;28;20244;-79
2022/10/22 02:24:19;;;;;;;4.15;3.03;;;;;;;14.94;nan;99346.69;4972185;28;20223;-78
2022/10/22 02:26:59;;;;;;;5.10;3.03;;;;;;;14.91;nan;99349.59;4972781;28;20206;-78
2022/10/22 02:29:31;;;;;;;4.82;2.40;;;;;;;14.87;nan;99341.06;4971452;28;20610;-78
2022/10/22 02:31:58;;;;;;;2.20;1.80;;;;;;;14.86;nan;99346.50;4970446;28;20237;-77
2022/10/22 02:34:29;;;;;;;3.40;1.80;;;;;;;14.86;nan;99349.16;4972987;28;20258;-78
2022/10/22 02:36:55;;;;;;;3.50;2.65;;;;;;;14.88;nan;99357.75;4987403;28;20202;-77
2022/10/22 02:39:21;;;;;;;4.40;2.00;;;;;;;14.89;nan;99360.28;4970667;28;20198;-78
2022/10/22 02:41:47;;;;;;;2.22;1.65;;;;;;;14.93;nan;99355.56;4972505;28;20227;-78
2022/10/22 02:44:13;;;;;;;4.22;2.00;;;;;;;14.96;nan;99369.38;4972150;28;20202;-79
2022/10/22 02:46:41;;;;;;;4.60;2.67;;;;;;;14.97;nan;99354.34;4969182;28;20206;-78
2022/10/22 02:49:06;;;;;;;2.00;1.67;;;;;;;14.97;nan;99341.97;4970736;28;20198;-78
2022/10/22 02:51:33;;;;;;;2.93;1.40;;;;;;;14.99;nan;99339.19;4971803;28;20303;-79
2022/10/22 02:53:58;;;;;;;2.22;2.00;;;;;;;14.97;nan;99352.53;4971763;28;20233;-78
2022/10/22 02:56:23;;;;;;;2.10;1.70;;;;;;;14.97;nan;99343.78;4969472;28;20196;-77
2022/10/22 02:58:49;;;;;;;3.50;2.30;;;;;;;14.97;nan;99333.19;4971268;28;20304;-78
2022/10/22 03:01:14;;;;;;;2.70;1.50;;;;;;;14.98;nan;99319.00;4970666;28;20202;-78
2022/10/22 03:03:40;;;;;;;1.87;1.57;;;;;;;14.96;nan;99312.97;4970772;28;21003;-77
2022/10/22 03:06:05;;;;;;;2.13;1.80;;;;;;;14.94;nan;99309.66;4968513;28;20271;-78
2022/10/22 03:08:31;;;;;;;4.00;1.67;;;;;;;14.89;nan;99307.41;4969839;28;20200;-78
2022/10/22 03:10:56;;;;;;;1.93;1.73;;;;;;;14.89;nan;99303.94;4968787;28;20275;-77
2022/10/22 03:13:22;;;;;;;3.00;1.90;;;;;;;14.87;nan;99306.69;4971525;28;20243;-78
2022/10/22 03:15:48;;;;;;;2.67;1.53;;;;;;;14.87;nan;99311.16;4971735;28;20196;-78
2022/10/22 03:18:14;;;;;;;2.90;1.60;;;;;;;14.87;nan;99305.84;4970051;28;20661;-78
2022/10/22 03:20:39;;;;;;;2.27;1.73;;;;;;;14.88;nan;99328.69;4969634;28;20307;-77
2022/10/22 03:23:05;;;;;;;2.20;1.80;;;;;;;14.89;nan;99335.66;4971205;28;20213;-78
2022/10/22 03:25:33;;;;;;;2.57;1.80;;;;;;;14.86;nan;99334.13;4971989;28;20218;-77
2022/10/22 03:28:03;;;;;;;2.40;1.40;;;;;;;14.82;nan;99343.25;4970151;28;20193;-78
2022/10/22 03:30:29;;;;;;;4.50;3.30;;;;;;;14.77;nan;99338.38;4975169;28;20284;-79
2022/10/22 03:32:54;;;;;;;3.50;1.90;;;;;;;14.75;nan;99344.78;4972773;28;20271;-77
2022/10/22 03:35:20;;;;;;;2.73;2.40;;;;;;;14.74;nan;99343.94;4973754;28;20810;-76
2022/10/22 03:37:46;;;;;;;2.07;1.87;;;;;;;14.73;nan;99344.91;4975252;28;20653;-78
2022/10/22 03:40:12;;;;;;;4.00;2.57;;;;;;;14.68;nan;99338.31;4973568;28;20491;-78
2022/10/22 03:42:39;;;;;;;2.60;2.28;;;;;;;14.63;nan;99348.44;4970960;28;20239;-76
2022/10/22 03:45:05;;;;;;;3.20;2.80;;;;;;;14.60;nan;99360.13;4975271;28;20224;-77
2022/10/22 03:47:30;;;;;;;3.92;3.17;;;;;;;14.57;nan;99350.63;4975498;28;20200;-78
2022/10/22 03:49:55;;;;;;;4.10;3.27;;;;;;;14.56;nan;99356.06;4972565;28;20221;-76
2022/10/22 03:52:21;;;;;;;5.90;3.00;;;;;;;14.52;nan;99352.81;4971112;28;20241;-76
2022/10/22 03:54:46;;;;;;;4.87;3.37;;;;;;;14.54;nan;99350.06;4974420;28;20191;-79
2022/10/22 03:57:12;;;;;;;6.23;3.87;;;;;;;14.54;nan;99347.44;4974356;28;20198;-78
2022/10/22 03:59:42;;;;;;;6.03;3.17;;;;;;;14.53;nan;99362.44;4974029;28;20217;-76
2022/10/22 04:02:08;;;;;;;4.97;3.72;;;;;;;14.54;nan;99352.72;4969832;28;20886;-78
2022/10/22 04:04:35;;;;;;;7.80;3.75;;;;;;;14.56;nan;99353.44;4974319;28;20186;-78
2022/10/22 04:07:00;;;;;;;3.45;3.15;;;;;;;14.58;nan;99351.47;4972239;28;20668;-78
2022/10/22 04:09:25;;;;;;;4.43;3.23;;;;;;;14.57;nan;99358.56;4971034;28;20200;-78
2022/10/22 04:11:51;;;;;;;4.07;2.80;;;;;;;14.56;nan;99359.53;4970703;28;20317;-78
2022/10/22 04:14:16;;;;;;;4.40;3.00;;;;;;;14.53;nan;99348.41;4974395;28;20310;-77
2022/10/22 04:16:42;;;;;;;3.80;3.13;;;;;;;14.50;nan;99359.19;4974117;28;20200;-79
2022/10/22 04:19:08;;;;;;;4.90;3.60;;;;;;;14.48;nan;99367.25;4972480;28;20181;-79
2022/10/22 04:21:34;;;;;;;6.17;4.10;;;;;;;14.48;nan;99371.69;4974728;28;20227;-80
2022/10/22 04:24:00;;;;;;;5.03;4.53;;;;;;;14.46;nan;99374.47;4974534;28;20451;-78
2022/10/22 04:26:25;;;;;;;7.83;5.03;;;;;;;14.44;nan;99371.09;4972216;28;20483;-79
2022/10/22 04:28:52;;;;;;;8.83;5.80;;;;;;;14.43;nan;99369.44;4973169;28;20458;-79
2022/10/22 04:31:20;;;;;;;8.60;5.88;;;;;;;14.41;nan;99374.00;4969988;28;20184;-77
2022/10/22 04:33:45;;;;;;;7.25;5.35;;;;;;;14.41;nan;99373.16;4973060;28;20286;-79
2022/10/22 04:36:16;;;;;;;7.77;6.03;;;;;;;14.36;nan;99371.72;4973376;28;20628;-80
2022/10/22 04:38:44;;;;;;;6.40;5.15;;;;;;;14.32;nan;99378.25;4972018;28;20616;-77
2022/10/22 04:41:37;;;;;;;8.23;4.55;;;;;;;14.30;nan;99377.53;4973903;28;20291;-78
2022/10/22 04:44:03;;;;;;;7.45;5.60;;;;;;;14.25;nan;99379.72;4969877;28;20201;-76
2022/10/22 04:46:32;;;;;;;9.10;4.63;;;;;;;14.21;nan;99375.66;4974269;28;20180;-79
2022/10/22 04:48:57;;;;;;;9.45;6.20;;;;;;;14.21;nan;99385.41;4972701;28;20205;-77
2022/10/22 04:51:24;;;;;;;7.30;5.30;;;;;;;14.20;nan;99384.53;4972112;28;20197;-78
2022/10/22 04:53:50;;;;;;;14.07;6.05;;;;;;;14.17;nan;99375.06;4971466;28;20242;-79
2022/10/22 04:56:21;;;;;;;8.07;5.57;;;;;;;14.18;nan;99381.19;4970473;28;20193;-76
2022/10/22 04:58:58;;;;;;;10.25;5.88;;;;;;;14.17;nan;99379.50;4970823;28;20275;-79
2022/10/22 05:01:27;;;;;;;11.05;5.82;;;;;;;14.18;nan;99381.19;4973263;28;20677;-77
2022/10/22 05:03:55;;;;;;;13.10;6.07;;;;;;;14.20;nan;99370.50;4961943;28;20636;-77
2022/10/22 05:06:21;;;;;;;11.98;6.60;;;;;;;14.19;nan;99371.47;4958384;28;20309;-77
2022/10/22 05:08:51;;;;;;;13.95;5.75;;;;;;;14.19;nan;99376.75;4958163;28;20650;-77
2022/10/22 05:11:21;;;;;;;8.95;6.47;;;;;;;14.18;nan;99373.28;4957313;28;20211;-77
2022/10/22 05:13:47;;;;;;;6.85;5.60;;;;;;;14.14;nan;99370.03;4959944;28;20188;-77
2022/10/22 05:16:13;;;;;;;8.53;5.37;;;;;;;14.11;nan;99372.94;4959120;28;20227;-77
2022/10/22 05:18:41;;;;;;;8.00;5.70;;;;;;;14.05;nan;99370.78;4957564;28;20286;-77
2022/10/22 05:21:09;;;;;;;8.27;5.65;;;;;;;14.01;nan;99371.16;4958923;28;20212;-78
2022/10/22 05:23:34;;;;;;;7.72;6.50;;;;;;;14.00;nan;99382.69;4960407;28;20354;-77
2022/10/22 05:26:04;;;;;;;9.20;6.67;;;;;;;14.00;nan;99382.69;4957652;28;20288;-77
2022/10/22 05:28:30;;;;;;;7.28;5.57;;;;;;;14.01;nan;99387.00;4959379;28;20193;-77
2022/10/22 05:30:58;;;;;;;8.00;5.07;;;;;;;14.00;nan;99380.06;4959107;28;20214;-77
2022/10/22 05:33:24;;;;;;;8.27;5.43;;;;;;;14.03;nan;99382.44;4959075;28;20193;-77
2022/10/22 05:35:50;;;;;;;10.65;6.55;;;;;;;14.03;nan;99377.16;4958591;28;20610;-77
2022/10/22 05:38:16;;;;;;;5.67;4.60;;;;;;;14.04;nan;99389.41;4958631;28;20407;-77
2022/10/22 05:40:41;;;;;;;8.70;5.82;;;;;;;14.04;nan;99394.69;4959719;28;20200;-77
2022/10/22 05:43:07;;;;;;;7.23;5.17;;;;;;;14.04;nan;99405.25;4956139;28;20224;-77
2022/10/22 05:45:37;;;;;;;7.07;4.80;;;;;;;14.01;nan;99414.25;4958384;28;20193;-77
2022/10/22 05:48:03;;;;;;;9.35;5.88;;;;;;;14.01;nan;99419.53;4957274;28;20200;-77
2022/10/22 05:50:28;;;;;;;7.22;4.50;;;;;;;14.01;nan;99423.97;4960192;28;20657;-77
2022/10/22 05:52:54;;;;;;;9.30;5.60;;;;;;;14.02;nan;99428.31;4957168;28;20682;-77
2022/10/22 05:55:19;;;;;;;8.03;4.37;;;;;;;14.00;nan;99427.59;4957110;28;20246;-77
2022/10/22 05:57:45;;;;;;;11.83;5.53;;;;;;;13.99;nan;99433.81;4957808;28;20192;-77
2022/10/22 06:00:11;;;;;;;6.30;4.50;;;;;;;13.97;nan;99435.78;4960448;28;20243;-78
2022/10/22 06:02:36;;;;;;;10.83;6.33;;;;;;;13.95;nan;99439.34;4958386;28;20231;-77
2022/10/22 06:05:02;;;;;;;6.73;5.50;;;;;;;13.94;nan;99440.31;4957528;28;20432;-76
2022/10/22 06:07:27;;;;;;;11.90;7.40;;;;;;;13.90;nan;99444.16;4957451;28;20209;-77
2022/10/22 06:09:53;;;;;;;9.80;7.67;;;;;;;13.86;nan;99450.66;4959664;28;20248;-77
2022/10/22 06:12:18;;;;;;;11.80;7.90;;;;;;;13.82;nan;99449.22;4958216;28;20292;-77
2022/10/22 06:14:44;;;;;;;10.67;7.80;;;;;;;13.81;nan;99459.91;4956471;28;20198;-76
2022/10/22 06:17:11;;;;;;;9.50;8.27;;;;;;;13.81;nan;99457.28;4958847;28;20208;-77
2022/10/22 06:19:36;;;;;;;11.80;8.35;;;;;;;13.77;nan;99455.81;4958842;28;20469;-77
2022/10/22 06:22:03;;;;;;;11.10;7.60;;;;;;;13.73;nan;99457.88;4957893;28;20303;-77
2022/10/22 06:24:29;;;;;;;8.25;6.53;;;;;;;13.71;nan;99468.53;4955703;28;20200;-77
2022/10/22 06:26:54;;;;;;;7.13;5.70;;;;;;;13.68;nan;99470.59;4958146;28;20197;-76
2022/10/22 06:29:20;;;;;;;11.00;7.57;;;;;;;13.69;nan;99480.19;4958893;28;20248;-77
2022/10/22 06:31:45;;;;;;;11.50;7.20;;;;;;;13.72;nan;99474.69;4957086;28;20214;-76
2022/10/22 06:34:13;;;;;;;10.20;7.53;;;;;;;13.71;nan;99475.63;4957781;28;20643;-76
2022/10/22 06:36:41;;;;;;;9.57;6.15;;;;;;;13.71;nan;99465.91;4958549;28;20311;-76
2022/10/22 06:39:10;;;;;;;8.95;6.28;;;;;;;13.73;nan;99479.00;4957811;28;20220;-77
2022/10/22 06:41:36;;;;;;;8.10;7.18;;;;;;;13.77;nan;99474.31;4957831;28;20231;-76
2022/10/22 06:44:01;;;;;;;11.50;8.27;;;;;;;13.80;nan;99480.19;4956326;28;20227;-76
2022/10/22 06:46:27;;;;;;;8.23;5.37;;;;;;;13.81;nan;99487.16;4959153;28;20194;-77
2022/10/22 06:48:56;;;;;;;7.03;5.40;;;;;;;13.83;nan;99490.50;4957779;28;20606;-77
2022/10/22 06:51:22;;;;;;;12.30;6.40;;;;;;;13.86;nan;99495.56;4957850;28;20686;-77
2022/10/22 06:53:48;;;;;;;6.40;5.47;;;;;;;13.88;nan;99496.28;4958549;28;20202;-77
2022/10/22 06:56:17;;;;;;;7.60;5.50;;;;;;;13.88;nan;99498.91;4958020;28;20449;-77
2022/10/22 06:58:42;;;;;;;9.60;5.28;;;;;;;13.89;nan;99491.81;4957445;28;20200;-77
2022/10/22 07:01:11;;;;;;;9.10;5.70;;;;;;;13.90;nan;99510.16;4956755;28;20201;-77
2022/10/22 07:03:37;;;;;;;10.90;5.47;;;;;;;13.92;nan;99508.25;4958929;28;20506;-77
2022/10/22 07:06:06;;;;;;;10.55;7.35;;;;;;;13.97;nan;99510.53;4961770;28;20185;-77
2022/10/22 07:08:32;;;;;;;7.85;5.05;;;;;;;14.03;nan;99514.50;4960945;28;20765;-77
2022/10/22 07:11:08;;;;;;;6.85;5.30;;;;;;;14.04;nan;99526.72;4960586;28;20180;-77
2022/10/22 07:13:34;;;;;;;4.65;3.60;;;;;;;14.02;nan;99526.03;4962846;28;20271;-77
2022/10/22 07:15:59;;;;;;;5.25;3.47;;;;;;;14.00;nan;99530.59;4958947;28;20410;-77
2022/10/22 07:18:25;;;;;;;11.80;5.03;;;;;;;14.03;nan;99530.34;4962276;28;20197;-78
2022/10/22 07:20:50;;;;;;;6.50;4.10;;;;;;;14.08;nan;99531.66;4962317;28;20702;-77
2022/10/22 07:23:16;;;;;;;6.13;4.90;;;;;;;14.16;nan;99531.03;4960984;28;20847;-77
2022/10/22 07:25:41;;;;;;;5.67;3.93;;;;;;;14.22;nan;99530.56;4959401;28;20198;-77
2022/10/22 07:28:07;;;;;;;6.83;4.00;;;;;;;14.30;nan;99529.94;4960393;28;20642;-78
2022/10/22 07:30:34;;;;;;;3.80;3.27;;;;;;;14.37;nan;99547.81;4961300;28;20572;-77
2022/10/22 07:33:00;;;;;;;5.20;3.13;;;;;;;14.48;nan;99540.84;4961506;28;20196;-78
2022/10/22 07:35:25;;;;;;;3.47;2.90;;;;;;;14.56;nan;99547.22;4961387;28;20230;-77
2022/10/22 07:37:51;;;;;;;2.40;1.87;;;;;;;14.64;nan;99554.53;4961473;28;20543;-78
2022/10/22 07:40:16;;;;;;;3.23;2.70;;;;;;;14.68;nan;99558.56;4960800;28;20204;-77
2022/10/22 07:42:41;;;;;;;5.20;2.63;;;;;;;14.72;nan;99548.63;4961488;28;20208;-78
2022/10/22 07:45:07;;;;;;;2.30;2.10;;;;;;;14.77;nan;99554.34;4960492;28;20262;-77
2022/10/22 07:47:33;;;;;;;3.30;2.20;;;;;;;14.78;nan;99554.22;4960985;28;20673;-77
2022/10/22 07:49:58;;;;;;;2.37;2.00;;;;;;;14.78;nan;99553.41;4960611;28;20304;-77
2022/10/22 07:52:24;;;;;;;3.77;2.20;;;;;;;14.77;nan;99554.34;4959824;28;20684;-77
2022/10/22 07:54:49;;;;;;;3.00;2.70;;;;;;;14.80;nan;99552.31;4961950;28;20191;-78
2022/10/22 07:57:15;;;;;;;2.83;2.37;;;;;;;14.87;nan;99563.19;4962220;28;20197;-77
2022/10/22 07:59:40;;;;;;;2.90;1.90;;;;;;;14.95;nan;99562.56;4959516;28;20627;-77
2022/10/22 08:02:06;;;;;;;2.90;1.80;;;;;;;15.01;nan;99560.28;4960348;28;20228;-77
2022/10/22 08:04:31;;;;;;;2.30;1.90;;;;;;;15.09;nan;99553.50;4961321;28;20192;-77
2022/10/22 08:06:56;;;;;;;7.73;3.53;;;;;;;15.17;nan;99561.63;4961461;28;20766;-77
2022/10/22 08:09:22;;;;;;;2.77;2.10;;;;;;;15.23;nan;99554.03;4958930;28;20190;-77
2022/10/22 08:11:47;;;;;;;4.10;1.60;;;;;;;15.30;nan;99554.34;4958763;28;20778;-77
2022/10/22 08:14:13;;;;;;;2.80;2.13;;;;;;;15.38;nan;99551.06;4960253;28;20197;-77
2022/10/22 08:16:38;;;;;;;2.80;2.10;;;;;;;15.69;nan;99555.47;4961022;28;20676;-78
2022/10/22 08:19:04;;;;;;;2.17;1.83;;;;;;;16.63;nan;99543.75;4959987;28;20189;-78
2022/10/22 08:21:29;;;;;;;3.90;1.60;;;;;;;17.82;nan;99542.53;4960154;28;20220;-78
2022/10/22 08:23:54;;;;;;;4.60;1.90;;;;;;;19.01;nan;99532.75;4959660;28;20701;-78
2022/10/22 08:26:20;;;;;;;3.53;1.57;;;;;;;20.03;nan;99542.72;4960989;28;20558;-78
2022/10/22 08:28:45;;;;;;;2.33;1.37;;;;;;;20.89;nan;99538.16;4960769;28;20191;-78
2022/10/22 08:31:11;;;;;;;2.50;1.23;;;;;;;21.64;nan;99529.94;4958648;28;20251;-76
2022/10/22 08:33:37;;;;;;;1.60;1.20;;;;;;;22.35;nan;99532.72;4958609;28;20194;-75
2022/10/22 08:36:03;;;;;;;2.70;1.40;;;;;;;22.84;nan;99524.38;4959105;28;20432;-77
2022/10/22 08:38:30;;;;;;;4.15;2.00;;;;;;;23.53;nan;99530.50;4958776;28;20442;-78
2022/10/22 08:41:15;;;;;;;2.07;1.40;;;;;;;24.01;nan;99536.38;4957949;28;20497;-78
2022/10/22 08:44:24;;;;;;;2.70;1.50;;;;;;;24.35;nan;99529.53;4960256;28;20444;-78
2022/10/22 08:47:28;;;;;;;2.43;1.50;;;;;;;24.67;nan;99530.97;4911221;29;20458;-79
2022/10/22 08:49:55;;;;;;;2.67;1.60;;;;;;;24.98;nan;99535.19;4956449;28;21036;-78
2022/10/22 08:52:21;;;;;;;1.47;1.37;;;;;;;25.14;nan;99539.44;4958420;28;20541;-78
2022/10/22 08:54:57;;;;;;;2.70;1.10;;;;;;;25.35;nan;99536.75;4959645;28;20444;-79
2022/10/22 08:57:25;;;;;;;3.20;2.07;;;;;;;25.66;nan;99540.94;4960964;28;20655;-76
2022/10/22 09:00:27;;;;;;;1.80;1.70;;;;;;;25.96;nan;99536.16;4960068;28;20411;-76
2022/10/22 09:03:17;;;;;;;2.23;1.50;;;;;;;26.27;nan;99540.22;4960220;28;20536;-76
2022/10/22 09:05:53;;;;;;;2.03;1.83;;;;;;;26.69;nan;99533.75;4960199;28;20444;-77
2022/10/22 09:08:19;;;;;;;2.00;1.80;;;;;;;27.02;nan;99538.38;4960125;28;20454;-76
2022/10/22 09:10:48;;;;;;;1.87;1.63;;;;;;;27.25;nan;99537.19;4956127;28;20441;-76
2022/10/22 09:13:18;;;;;;;3.37;1.70;;;;;;;27.32;nan;99533.41;4961101;28;20216;-76
2022/10/22 09:15:58;;;;;;;3.00;2.03;;;;;;;27.27;nan;99537.78;4959728;28;20435;-77
2022/10/22 09:18:35;;;;;;;2.00;1.30;;;;;;;27.09;nan;99538.38;4959755;28;20453;-76
2022/10/22 09:21:27;;;;;;;4.80;1.23;;;;;;;26.75;nan;99540.19;4957735;28;20861;-76
2022/10/22 09:24:10;;;;;;;1.90;1.10;;;;;;;26.30;nan;99545.19;4959580;28;20869;-77
2022/10/22 09:26:39;;;;;;;3.00;1.43;;;;;;;25.83;nan;99549.50;4958192;28;20491;-77
2022/10/22 09:29:04;;;;;;;63.17;21.90;;;;;;;25.46;nan;99553.41;4959614;28;20531;-77
2022/10/22 09:31:31;;;;;;;4.77;2.07;;;;;;;25.08;nan;99559.88;4958850;28;20536;-77
2022/10/22 09:33:58;;;;;;;49.10;14.70;;;;;;;24.57;nan;99548.41;4960256;28;20653;-78
2022/10/22 09:36:27;;;;;;;4.27;2.00;;;;;;;24.07;nan;99558.94;4959891;28;20444;-77
2022/10/22 09:38:53;;;;;;;151.30;38.80;;;;;;;23.71;nan;99554.31;4960392;28;20439;-77
2022/10/22 09:41:22;;;;;;;8.13;2.77;;;;;;;23.50;nan;99562.19;4961170;28;20844;-77
2022/10/22 09:43:47;;;;;;;39.17;10.83;;;;;;;23.16;nan;99558.97;4960904;28;20198;-76
2022/10/22 09:46:19;;;;;;;7.47;2.03;;;;;;;22.79;nan;99558.88;4959795;28;20440;-77
2022/10/22 09:49:28;;;;;;;109.33;24.53;;;;;;;22.49;nan;99564.94;4961145;28;20197;-77
2022/10/22 09:51:56;;;;;;;381.80;84.00;;;;;;;22.33;nan;99566.84;4898311;29;20992;-77
2022/10/22 09:54:31;;;;;;;11.13;4.30;;;;;;;22.27;nan;99566.53;4900718;29;20506;-77
2022/10/22 09:57:03;;;;;;;2.50;1.77;;;;;;;22.25;nan;99563.22;4932904;28;21058;-77
2022/10/22 09:59:32;;;;;;;608.53;157.87;;;;;;;22.21;nan;99567.22;4959015;28;20949;-77
2022/10/22 10:02:01;;;;;;;4.30;2.13;;;;;;;22.22;nan;99563.53;3936176;28;10011286;-78
2022/10/22 10:04:26;;;;;;;5.90;2.27;;;;;;;22.24;nan;99561.53;4960973;28;20188;-77
2022/10/22 10:06:55;;;;;;;1.80;1.17;;;;;;;22.25;nan;99571.25;4959166;28;20436;-78
2022/10/22 10:09:23;;;;;;;4.00;1.63;;;;;;;22.19;nan;99568.41;4957100;28;20208;-77
2022/10/22 10:12:24;;;;;;;2.00;1.63;;;;;;;22.18;nan;99561.38;4957550;28;20513;-77
2022/10/22 10:15:07;;;;;;;4.60;1.70;;;;;;;22.07;nan;99565.25;4956071;28;20453;-77
2022/10/22 10:17:55;;;;;;;3.27;1.80;;;;;;;22.02;nan;99570.28;4958074;28;20543;-77
2022/10/22 10:20:45;;;;;;;2.67;1.40;;;;;;;21.90;nan;99560.94;4958612;28;20487;-77
2022/10/22 10:23:44;;;;;;;5.03;1.57;;;;;;;21.81;nan;99570.84;4958710;28;20471;-77
2022/10/22 10:26:22;;;;;;;3.63;1.30;;;;;;;21.78;nan;99561.31;4956952;28;20472;-77
2022/10/22 10:28:50;;;;;;;3.80;1.80;;;;;;;21.83;nan;99569.66;4956258;28;20440;-77
2022/10/22 10:31:25;;;;;;;3.70;1.23;;;;;;;21.84;nan;99570.50;4957889;28;20904;-78
2022/10/22 10:34:01;;;;;;;2.90;1.33;;;;;;;21.74;nan;99569.84;4959178;28;20880;-77
2022/10/22 10:36:52;;;;;;;3.63;2.20;;;;;;;21.64;nan;99560.19;4956806;28;20439;-77
2022/10/22 10:39:26;;;;;;;1.73;1.50;;;;;;;21.65;nan;99571.69;4956751;28;20461;-77
2022/10/22 10:42:05;;;;;;;2.83;1.67;;;;;;;21.64;nan;99564.69;4956685;28;20516;-77
2022/10/22 10:44:58;;;;;;;3.83;1.60;;;;;;;21.57;nan;99567.19;4958446;28;20450;-78
2022/10/22 10:47:33;;;;;;;3.00;1.70;;;;;;;21.51;nan;99559.03;4958630;28;20432;-77
2022/10/22 10:50:14;;;;;;;13.37;1.53;;;;;;;21.55;nan;99560.34;4958178;28;20448;-78
2022/10/22 10:52:51;;;;;;;2.30;1.27;;;;;;;21.68;nan;99560.66;4958837;28;20930;-77
2022/10/22 10:55:32;;;;;;;4.00;1.80;;;;;;;21.73;nan;99552.97;4957964;28;20502;-79
2022/10/22 10:58:10;;;;;;;2.67;1.40;;;;;;;21.83;nan;99558.97;4955721;28;20943;-78
2022/10/22 11:00:50;;;;;;;2.27;1.50;;;;;;;21.91;nan;99559.97;4959686;28;20435;-78
2022/10/22 11:03:37;;;;;;;1.20;1.10;;;;;;;21.98;nan;99560.91;4961301;28;20464;-77
2022/10/22 11:06:08;;;;;;;4.97;1.80;;;;;;;21.99;nan;99555.41;4957147;28;20437;-77
2022/10/22 11:08:53;;;;;;;2.20;1.33;;;;;;;22.05;nan;99556.56;4958842;28;20882;-77
2022/10/22 11:11:31;;;;;;;4.27;1.40;;;;;;;22.05;nan;99546.69;4958538;28;20753;-77
2022/10/22 11:14:08;;;;;;;3.00;1.40;;;;;;;22.01;nan;99545.38;4957835;28;20506;-77
2022/10/22 11:16:41;;;;;;;2.20;1.47;;;;;;;21.92;nan;99541.06;4960630;28;20455;-77
2022/10/22 11:19:24;;;;;;;3.73;1.50;;;;;;;21.85;nan;99551.63;4958253;28;20448;-77
2022/10/22 11:21:55;;;;;;;1.87;1.00;;;;;;;21.83;nan;99542.91;4959439;28;20575;-77
2022/10/22 11:24:35;;;;;;;1.30;1.10;;;;;;;21.83;nan;99547.44;4955883;28;20498;-77
2022/10/22 11:27:04;;;;;;;1.50;1.40;;;;;;;21.82;nan;99545.78;4955828;28;20928;-77
2022/10/22 11:29:44;;;;;;;3.93;1.40;;;;;;;21.85;nan;99545.44;4957631;28;20457;-78
2022/10/22 11:32:17;;;;;;;1.70;1.20;;;;;;;21.90;nan;99545.75;4957950;28;20821;-77
2022/10/22 11:34:53;;;;;;;2.53;1.40;;;;;;;21.88;nan;99548.59;4958076;28;20451;-77
2022/10/22 11:37:20;;;;;;;3.00;1.53;;;;;;;21.90;nan;99545.75;4956084;28;20495;-77
2022/10/22 11:40:06;;;;;;;2.00;1.40;;;;;;;21.93;nan;99542.75;4958350;28;20445;-77
2022/10/22 11:42:43;;;;;;;3.90;1.40;;;;;;;21.94;nan;99544.41;4956810;28;20587;-77
2022/10/22 11:45:14;;;;;;;4.27;1.43;;;;;;;22.00;nan;99549.03;4957317;28;20428;-77
2022/10/22 11:47:55;;;;;;;3.07;1.30;;;;;;;22.02;nan;99540.84;4955116;28;21010;-77
2022/10/22 11:50:40;;;;;;;4.47;1.47;;;;;;;21.98;nan;99536.84;4959679;28;20622;-77
2022/10/22 11:53:17;;;;;;;8.43;1.87;;;;;;;22.00;nan;99540.19;4960117;28;21026;-77
2022/10/22 11:55:48;;;;;;;1.47;1.10;;;;;;;22.03;nan;99539.84;4960322;28;20455;-77
2022/10/22 11:58:43;;;;;;;4.53;1.40;;;;;;;22.05;nan;99530.63;4961645;28;20542;-77
2022/10/22 12:01:09;;;;;;;1.50;1.20;;;;;;;22.11;nan;99537.13;4958672;28;20518;-76
2022/10/22 12:03:36;;;;;;;1.80;1.07;;;;;;;22.16;nan;99541.97;4958921;28;20809;-76
2022/10/22 12:06:11;;;;;;;4.57;1.80;;;;;;;22.23;nan;99526.94;4958727;28;20199;-76